sensor_id;sensor_type;location;lat;lon;timestamp;temperature;humidity
80274;DHT22;69576;51.902;-8.462;2024-02-26T00:01:33;10.80;71.00
80274;DHT22;69576;51.902;-8.462;2024-02-26T00:03:59;10.80;71.20
80274;DHT22;69576;51.902;-8.462;2024-02-26T00:06:32;10.80;71.40
80274;DHT22;69576;51.902;-8.462;2024-02-26T00:09:01;10.80;71.40
80274;DHT22;69576;51.902;-8.462;2024-02-26T00:11:30;10.80;71.20
80274;DHT22;69576;51.902;-8.462;2024-02-26T00:13:58;10.80;70.90
80274;DHT22;69576;51.902;-8.462;2024-02-26T00:16:24;10.80;72.30
80274;DHT22;69576;51.902;-8.462;2024-02-26T00:18:53;10.80;71.40
80274;DHT22;69576;51.902;-8.462;2024-02-26T00:21:21;10.80;72.30
80274;DHT22;69576;51.902;-8.462;2024-02-26T00:23:52;10.80;72.40
80274;DHT22;69576;51.902;-8.462;2024-02-26T00:26:18;10.80;71.80
80274;DHT22;69576;51.902;-8.462;2024-02-26T00:28:46;10.80;72.30
80274;DHT22;69576;51.902;-8.462;2024-02-26T00:31:14;10.80;71.70
80274;DHT22;69576;51.902;-8.462;2024-02-26T00:33:42;10.70;71.60
80274;DHT22;69576;51.902;-8.462;2024-02-26T00:36:08;10.70;71.60
80274;DHT22;69576;51.902;-8.462;2024-02-26T00:38:37;10.80;72.90
80274;DHT22;69576;51.902;-8.462;2024-02-26T00:41:05;10.80;72.00
80274;DHT22;69576;51.902;-8.462;2024-02-26T00:43:35;10.80;72.20
80274;DHT22;69576;51.902;-8.462;2024-02-26T00:46:01;10.80;73.70
80274;DHT22;69576;51.902;-8.462;2024-02-26T00:48:27;10.80;72.10
80274;DHT22;69576;51.902;-8.462;2024-02-26T00:50:55;10.80;72.00
80274;DHT22;69576;51.902;-8.462;2024-02-26T00:53:24;10.80;72.00
80274;DHT22;69576;51.902;-8.462;2024-02-26T00:55:50;10.80;71.60
80274;DHT22;69576;51.902;-8.462;2024-02-26T00:58:19;10.80;71.90
80274;DHT22;69576;51.902;-8.462;2024-02-26T01:00:45;10.80;71.90
80274;DHT22;69576;51.902;-8.462;2024-02-26T01:03:11;10.70;71.50
80274;DHT22;69576;51.902;-8.462;2024-02-26T01:05:39;10.70;71.80
80274;DHT22;69576;51.902;-8.462;2024-02-26T01:08:09;10.70;71.20
80274;DHT22;69576;51.902;-8.462;2024-02-26T01:10:35;10.70;72.50
80274;DHT22;69576;51.902;-8.462;2024-02-26T01:13:03;10.60;71.60
80274;DHT22;69576;51.902;-8.462;2024-02-26T01:15:29;10.60;71.50
80274;DHT22;69576;51.902;-8.462;2024-02-26T01:17:58;10.60;71.50
80274;DHT22;69576;51.902;-8.462;2024-02-26T01:20:26;10.60;73.00
80274;DHT22;69576;51.902;-8.462;2024-02-26T01:22:51;10.60;72.00
80274;DHT22;69576;51.902;-8.462;2024-02-26T01:25:17;10.60;71.90
80274;DHT22;69576;51.902;-8.462;2024-02-26T01:27:43;10.60;71.60
80274;DHT22;69576;51.902;-8.462;2024-02-26T01:30:12;10.50;71.40
80274;DHT22;69576;51.902;-8.462;2024-02-26T01:32:44;10.50;71.00
80274;DHT22;69576;51.902;-8.462;2024-02-26T01:35:14;10.50;71.00
80274;DHT22;69576;51.902;-8.462;2024-02-26T01:37:40;10.40;71.40
80274;DHT22;69576;51.902;-8.462;2024-02-26T01:40:07;10.40;71.80
80274;DHT22;69576;51.902;-8.462;2024-02-26T01:42:36;10.50;72.80
80274;DHT22;69576;51.902;-8.462;2024-02-26T01:45:06;10.50;71.50
80274;DHT22;69576;51.902;-8.462;2024-02-26T01:47:35;10.50;72.00
80274;DHT22;69576;51.902;-8.462;2024-02-26T01:50:00;10.50;71.50
80274;DHT22;69576;51.902;-8.462;2024-02-26T01:52:29;10.50;71.60
80274;DHT22;69576;51.902;-8.462;2024-02-26T01:55:00;10.50;72.60
80274;DHT22;69576;51.902;-8.462;2024-02-26T01:57:30;10.50;72.20
80274;DHT22;69576;51.902;-8.462;2024-02-26T01:59:58;10.50;71.70
80274;DHT22;69576;51.902;-8.462;2024-02-26T02:02:29;10.50;72.70
80274;DHT22;69576;51.902;-8.462;2024-02-26T02:04:57;10.50;71.90
80274;DHT22;69576;51.902;-8.462;2024-02-26T02:07:23;10.50;72.50
80274;DHT22;69576;51.902;-8.462;2024-02-26T02:09:50;10.50;71.60
80274;DHT22;69576;51.902;-8.462;2024-02-26T02:12:19;10.40;71.80
80274;DHT22;69576;51.902;-8.462;2024-02-26T02:14:49;10.40;72.20
80274;DHT22;69576;51.902;-8.462;2024-02-26T02:17:18;10.40;71.90
80274;DHT22;69576;51.902;-8.462;2024-02-26T02:19:44;10.40;72.00
80274;DHT22;69576;51.902;-8.462;2024-02-26T02:22:12;10.30;71.50
80274;DHT22;69576;51.902;-8.462;2024-02-26T02:24:38;10.30;71.90
80274;DHT22;69576;51.902;-8.462;2024-02-26T02:27:06;10.30;71.60
80274;DHT22;69576;51.902;-8.462;2024-02-26T02:29:32;10.30;71.60
80274;DHT22;69576;51.902;-8.462;2024-02-26T02:31:58;10.20;71.60
80274;DHT22;69576;51.902;-8.462;2024-02-26T02:34:26;10.20;71.40
80274;DHT22;69576;51.902;-8.462;2024-02-26T02:36:55;10.20;71.40
80274;DHT22;69576;51.902;-8.462;2024-02-26T02:39:21;10.10;71.40
80274;DHT22;69576;51.902;-8.462;2024-02-26T02:41:46;10.10;71.50
80274;DHT22;69576;51.902;-8.462;2024-02-26T02:44:17;10.10;71.40
80274;DHT22;69576;51.902;-8.462;2024-02-26T02:46:47;10.10;71.50
80274;DHT22;69576;51.902;-8.462;2024-02-26T02:49:14;10.10;71.80
80274;DHT22;69576;51.902;-8.462;2024-02-26T02:51:39;10.10;71.30
80274;DHT22;69576;51.902;-8.462;2024-02-26T02:54:05;10.10;71.40
80274;DHT22;69576;51.902;-8.462;2024-02-26T02:56:35;10.10;71.50
80274;DHT22;69576;51.902;-8.462;2024-02-26T02:59:02;10.00;71.20
80274;DHT22;69576;51.902;-8.462;2024-02-26T03:01:28;10.00;71.60
80274;DHT22;69576;51.902;-8.462;2024-02-26T03:03:53;10.00;71.60
80274;DHT22;69576;51.902;-8.462;2024-02-26T03:06:22;10.00;72.10
80274;DHT22;69576;51.902;-8.462;2024-02-26T03:08:48;10.10;72.30
80274;DHT22;69576;51.902;-8.462;2024-02-26T03:11:14;10.10;72.00
80274;DHT22;69576;51.902;-8.462;2024-02-26T03:13:43;10.20;73.20
80274;DHT22;69576;51.902;-8.462;2024-02-26T03:16:11;10.10;71.90
80274;DHT22;69576;51.902;-8.462;2024-02-26T03:18:39;10.20;73.30
80274;DHT22;69576;51.902;-8.462;2024-02-26T03:21:09;10.20;71.80
80274;DHT22;69576;51.902;-8.462;2024-02-26T03:23:37;10.10;71.20
80274;DHT22;69576;51.902;-8.462;2024-02-26T03:26:08;10.10;71.30
80274;DHT22;69576;51.902;-8.462;2024-02-26T03:28:37;10.00;72.60
80274;DHT22;69576;51.902;-8.462;2024-02-26T03:31:05;10.00;71.50
80274;DHT22;69576;51.902;-8.462;2024-02-26T03:33:30;10.00;71.70
80274;DHT22;69576;51.902;-8.462;2024-02-26T03:35:59;10.00;71.50
80274;DHT22;69576;51.902;-8.462;2024-02-26T03:38:28;10.00;71.60
80274;DHT22;69576;51.902;-8.462;2024-02-26T03:40:53;10.00;72.00
80274;DHT22;69576;51.902;-8.462;2024-02-26T03:43:19;10.00;71.30
80274;DHT22;69576;51.902;-8.462;2024-02-26T03:45:47;10.00;71.20
80274;DHT22;69576;51.902;-8.462;2024-02-26T03:48:15;10.00;71.50
80274;DHT22;69576;51.902;-8.462;2024-02-26T03:50:41;10.00;71.70
80274;DHT22;69576;51.902;-8.462;2024-02-26T03:53:09;10.00;71.60
80274;DHT22;69576;51.902;-8.462;2024-02-26T03:55:38;10.00;72.50
80274;DHT22;69576;51.902;-8.462;2024-02-26T03:58:04;10.00;72.10
80274;DHT22;69576;51.902;-8.462;2024-02-26T04:00:29;10.00;71.20
80274;DHT22;69576;51.902;-8.462;2024-02-26T04:02:55;10.00;71.50
80274;DHT22;69576;51.902;-8.462;2024-02-26T04:05:24;10.00;71.90
80274;DHT22;69576;51.902;-8.462;2024-02-26T04:07:49;9.90;71.60
80274;DHT22;69576;51.902;-8.462;2024-02-26T04:10:15;9.90;71.90
80274;DHT22;69576;51.902;-8.462;2024-02-26T04:12:42;9.90;71.70
80274;DHT22;69576;51.902;-8.462;2024-02-26T04:15:11;9.90;71.90
80274;DHT22;69576;51.902;-8.462;2024-02-26T04:17:39;9.80;71.50
80274;DHT22;69576;51.902;-8.462;2024-02-26T04:20:08;9.80;71.80
80274;DHT22;69576;51.902;-8.462;2024-02-26T04:22:35;9.80;71.80
80274;DHT22;69576;51.902;-8.462;2024-02-26T04:25:05;9.80;71.30
80274;DHT22;69576;51.902;-8.462;2024-02-26T04:27:31;9.70;71.20
80274;DHT22;69576;51.902;-8.462;2024-02-26T04:29:59;9.70;71.30
80274;DHT22;69576;51.902;-8.462;2024-02-26T04:32:25;9.70;71.40
80274;DHT22;69576;51.902;-8.462;2024-02-26T04:34:53;9.70;70.80
80274;DHT22;69576;51.902;-8.462;2024-02-26T04:37:23;9.70;71.40
80274;DHT22;69576;51.902;-8.462;2024-02-26T04:39:51;9.70;71.90
80274;DHT22;69576;51.902;-8.462;2024-02-26T04:42:17;9.70;71.80
80274;DHT22;69576;51.902;-8.462;2024-02-26T04:44:43;9.60;71.40
80274;DHT22;69576;51.902;-8.462;2024-02-26T04:47:13;9.70;71.60
80274;DHT22;69576;51.902;-8.462;2024-02-26T04:49:44;9.60;71.00
80274;DHT22;69576;51.902;-8.462;2024-02-26T04:52:12;9.60;72.10
80274;DHT22;69576;51.902;-8.462;2024-02-26T04:54:38;9.60;71.30
80274;DHT22;69576;51.902;-8.462;2024-02-26T04:57:08;9.60;71.20
80274;DHT22;69576;51.902;-8.462;2024-02-26T04:59:37;9.60;71.50
80274;DHT22;69576;51.902;-8.462;2024-02-26T05:02:03;9.60;71.70
80274;DHT22;69576;51.902;-8.462;2024-02-26T05:04:32;9.60;71.20
80274;DHT22;69576;51.902;-8.462;2024-02-26T05:06:57;9.50;71.60
80274;DHT22;69576;51.902;-8.462;2024-02-26T05:09:25;9.50;70.90
80274;DHT22;69576;51.902;-8.462;2024-02-26T05:11:53;9.50;70.80
80274;DHT22;69576;51.902;-8.462;2024-02-26T05:14:19;9.40;71.00
80274;DHT22;69576;51.902;-8.462;2024-02-26T05:16:47;9.40;70.90
80274;DHT22;69576;51.902;-8.462;2024-02-26T05:19:15;9.40;70.90
80274;DHT22;69576;51.902;-8.462;2024-02-26T05:21:41;9.40;70.90
80274;DHT22;69576;51.902;-8.462;2024-02-26T05:24:09;9.40;71.00
80274;DHT22;69576;51.902;-8.462;2024-02-26T05:26:38;9.40;71.20
80274;DHT22;69576;51.902;-8.462;2024-02-26T05:29:03;9.40;71.40
80274;DHT22;69576;51.902;-8.462;2024-02-26T05:31:31;9.40;70.80
80274;DHT22;69576;51.902;-8.462;2024-02-26T05:34:01;9.40;71.30
80274;DHT22;69576;51.902;-8.462;2024-02-26T05:36:27;9.40;71.60
80274;DHT22;69576;51.902;-8.462;2024-02-26T05:39:00;9.40;71.20
80274;DHT22;69576;51.902;-8.462;2024-02-26T05:41:26;9.40;72.00
80274;DHT22;69576;51.902;-8.462;2024-02-26T05:43:55;9.40;71.10
80274;DHT22;69576;51.902;-8.462;2024-02-26T05:46:22;9.40;71.00
80274;DHT22;69576;51.902;-8.462;2024-02-26T05:48:52;9.40;71.00
80274;DHT22;69576;51.902;-8.462;2024-02-26T05:51:23;9.40;71.00
80274;DHT22;69576;51.902;-8.462;2024-02-26T05:53:48;9.30;70.80
80274;DHT22;69576;51.902;-8.462;2024-02-26T05:56:21;9.30;71.20
80274;DHT22;69576;51.902;-8.462;2024-02-26T05:58:50;9.40;71.40
80274;DHT22;69576;51.902;-8.462;2024-02-26T06:01:19;9.40;71.20
80274;DHT22;69576;51.902;-8.462;2024-02-26T06:03:45;9.30;71.10
80274;DHT22;69576;51.902;-8.462;2024-02-26T06:06:11;9.30;71.20
80274;DHT22;69576;51.902;-8.462;2024-02-26T06:08:37;9.30;71.20
80274;DHT22;69576;51.902;-8.462;2024-02-26T06:11:06;9.30;71.60
80274;DHT22;69576;51.902;-8.462;2024-02-26T06:13:33;9.30;71.60
80274;DHT22;69576;51.902;-8.462;2024-02-26T06:16:01;9.30;71.10
80274;DHT22;69576;51.902;-8.462;2024-02-26T06:18:27;9.20;71.10
80274;DHT22;69576;51.902;-8.462;2024-02-26T06:20:53;9.20;70.90
80274;DHT22;69576;51.902;-8.462;2024-02-26T06:23:21;9.20;71.50
80274;DHT22;69576;51.902;-8.462;2024-02-26T06:25:47;9.20;71.10
80274;DHT22;69576;51.902;-8.462;2024-02-26T06:28:18;9.20;71.20
80274;DHT22;69576;51.902;-8.462;2024-02-26T06:30:44;9.20;71.10
80274;DHT22;69576;51.902;-8.462;2024-02-26T06:33:11;9.20;71.10
80274;DHT22;69576;51.902;-8.462;2024-02-26T06:35:42;9.20;71.00
80274;DHT22;69576;51.902;-8.462;2024-02-26T06:38:10;9.20;71.40
80274;DHT22;69576;51.902;-8.462;2024-02-26T06:40:39;9.20;71.50
80274;DHT22;69576;51.902;-8.462;2024-02-26T06:43:05;9.20;71.30
80274;DHT22;69576;51.902;-8.462;2024-02-26T06:45:33;9.20;71.20
80274;DHT22;69576;51.902;-8.462;2024-02-26T06:48:01;9.20;71.20
80274;DHT22;69576;51.902;-8.462;2024-02-26T06:50:28;9.20;71.50
80274;DHT22;69576;51.902;-8.462;2024-02-26T06:52:53;9.20;71.20
80274;DHT22;69576;51.902;-8.462;2024-02-26T06:55:22;9.20;71.50
80274;DHT22;69576;51.902;-8.462;2024-02-26T06:57:48;9.20;71.20
80274;DHT22;69576;51.902;-8.462;2024-02-26T07:00:14;9.30;71.80
80274;DHT22;69576;51.902;-8.462;2024-02-26T07:02:46;9.40;71.40
80274;DHT22;69576;51.902;-8.462;2024-02-26T07:05:12;9.40;71.60
80274;DHT22;69576;51.902;-8.462;2024-02-26T07:07:40;9.40;71.70
80274;DHT22;69576;51.902;-8.462;2024-02-26T07:10:06;9.40;71.90
80274;DHT22;69576;51.902;-8.462;2024-02-26T07:12:34;9.50;71.70
80274;DHT22;69576;51.902;-8.462;2024-02-26T07:15:06;9.50;71.90
80274;DHT22;69576;51.902;-8.462;2024-02-26T07:17:38;9.60;71.70
80274;DHT22;69576;51.902;-8.462;2024-02-26T07:20:08;9.60;72.00
80274;DHT22;69576;51.902;-8.462;2024-02-26T07:22:38;9.70;72.30
80274;DHT22;69576;51.902;-8.462;2024-02-26T07:25:07;9.80;72.10
80274;DHT22;69576;51.902;-8.462;2024-02-26T07:27:43;9.90;71.30
80274;DHT22;69576;51.902;-8.462;2024-02-26T07:30:11;10.00;71.10
80274;DHT22;69576;51.902;-8.462;2024-02-26T07:32:42;10.10;70.90
80274;DHT22;69576;51.902;-8.462;2024-02-26T07:35:10;10.30;70.20
80274;DHT22;69576;51.902;-8.462;2024-02-26T07:37:41;10.50;70.30
80274;DHT22;69576;51.902;-8.462;2024-02-26T07:40:10;10.60;69.40
80274;DHT22;69576;51.902;-8.462;2024-02-26T07:42:38;10.60;69.00
80274;DHT22;69576;51.902;-8.462;2024-02-26T07:45:07;10.60;68.90
80274;DHT22;69576;51.902;-8.462;2024-02-26T07:47:33;10.60;69.00
80274;DHT22;69576;51.902;-8.462;2024-02-26T07:50:01;10.60;68.90
80274;DHT22;69576;51.902;-8.462;2024-02-26T07:52:29;10.60;68.30
80274;DHT22;69576;51.902;-8.462;2024-02-26T07:54:55;10.60;68.60
80274;DHT22;69576;51.902;-8.462;2024-02-26T07:57:21;10.60;68.80
80274;DHT22;69576;51.902;-8.462;2024-02-26T07:59:46;10.70;68.70
80274;DHT22;69576;51.902;-8.462;2024-02-26T08:02:17;10.70;68.50
80274;DHT22;69576;51.902;-8.462;2024-02-26T08:04:45;10.70;69.30
80274;DHT22;69576;51.902;-8.462;2024-02-26T08:07:11;10.80;68.80
80274;DHT22;69576;51.902;-8.462;2024-02-26T08:09:37;10.70;68.70
80274;DHT22;69576;51.902;-8.462;2024-02-26T08:12:03;10.80;68.00
80274;DHT22;69576;51.902;-8.462;2024-02-26T08:14:29;10.80;67.90
80274;DHT22;69576;51.902;-8.462;2024-02-26T08:16:58;10.80;67.70
80274;DHT22;69576;51.902;-8.462;2024-02-26T08:19:26;10.70;67.20
80274;DHT22;69576;51.902;-8.462;2024-02-26T08:21:52;10.70;67.60
80274;DHT22;69576;51.902;-8.462;2024-02-26T08:24:18;10.60;67.80
80274;DHT22;69576;51.902;-8.462;2024-02-26T08:26:46;10.70;67.80
80274;DHT22;69576;51.902;-8.462;2024-02-26T08:29:12;10.60;67.60
80274;DHT22;69576;51.902;-8.462;2024-02-26T08:31:38;10.60;68.00
80274;DHT22;69576;51.902;-8.462;2024-02-26T08:34:04;10.60;67.70
80274;DHT22;69576;51.902;-8.462;2024-02-26T08:36:33;10.60;68.00
80274;DHT22;69576;51.902;-8.462;2024-02-26T08:39:02;10.70;67.70
80274;DHT22;69576;51.902;-8.462;2024-02-26T08:41:28;10.70;67.80
80274;DHT22;69576;51.902;-8.462;2024-02-26T08:43:56;10.70;68.10
80274;DHT22;69576;51.902;-8.462;2024-02-26T08:46:26;10.80;68.60
80274;DHT22;69576;51.902;-8.462;2024-02-26T08:48:52;10.80;68.40
80274;DHT22;69576;51.902;-8.462;2024-02-26T08:51:20;10.90;68.30
80274;DHT22;69576;51.902;-8.462;2024-02-26T08:53:48;10.90;68.20
80274;DHT22;69576;51.902;-8.462;2024-02-26T08:56:15;10.90;68.60
80274;DHT22;69576;51.902;-8.462;2024-02-26T08:58:43;11.00;67.90
80274;DHT22;69576;51.902;-8.462;2024-02-26T09:01:14;10.90;67.70
80274;DHT22;69576;51.902;-8.462;2024-02-26T09:03:40;10.90;67.60
80274;DHT22;69576;51.902;-8.462;2024-02-26T09:06:06;10.90;67.70
80274;DHT22;69576;51.902;-8.462;2024-02-26T09:08:34;11.00;67.80
80274;DHT22;69576;51.902;-8.462;2024-02-26T09:11:04;10.90;67.50
80274;DHT22;69576;51.902;-8.462;2024-02-26T09:13:34;10.90;67.50
80274;DHT22;69576;51.902;-8.462;2024-02-26T09:16:02;11.00;67.70
80274;DHT22;69576;51.902;-8.462;2024-02-26T09:18:28;11.00;67.80
80274;DHT22;69576;51.902;-8.462;2024-02-26T09:20:56;11.00;67.70
80274;DHT22;69576;51.902;-8.462;2024-02-26T09:23:22;11.00;67.50
80274;DHT22;69576;51.902;-8.462;2024-02-26T09:25:50;11.00;67.50
80274;DHT22;69576;51.902;-8.462;2024-02-26T09:28:23;11.00;67.60
80274;DHT22;69576;51.902;-8.462;2024-02-26T09:30:49;11.10;67.50
80274;DHT22;69576;51.902;-8.462;2024-02-26T09:33:15;11.00;67.30
80274;DHT22;69576;51.902;-8.462;2024-02-26T09:35:43;11.10;67.70
80274;DHT22;69576;51.902;-8.462;2024-02-26T09:38:09;11.10;68.00
80274;DHT22;69576;51.902;-8.462;2024-02-26T09:40:39;11.10;67.90
80274;DHT22;69576;51.902;-8.462;2024-02-26T09:43:10;11.30;68.90
80274;DHT22;69576;51.902;-8.462;2024-02-26T09:45:39;11.20;67.50
80274;DHT22;69576;51.902;-8.462;2024-02-26T09:48:08;11.20;66.60
80274;DHT22;69576;51.902;-8.462;2024-02-26T09:50:35;11.10;66.80
80274;DHT22;69576;51.902;-8.462;2024-02-26T09:53:04;11.10;66.70
80274;DHT22;69576;51.902;-8.462;2024-02-26T09:55:33;11.10;66.40
80274;DHT22;69576;51.902;-8.462;2024-02-26T09:57:59;11.20;66.00
80274;DHT22;69576;51.902;-8.462;2024-02-26T10:00:26;11.30;65.60
80274;DHT22;69576;51.902;-8.462;2024-02-26T10:02:58;11.30;65.80
80274;DHT22;69576;51.902;-8.462;2024-02-26T10:05:27;11.30;65.90
80274;DHT22;69576;51.902;-8.462;2024-02-26T10:07:55;11.40;65.90
80274;DHT22;69576;51.902;-8.462;2024-02-26T10:10:25;11.40;65.60
80274;DHT22;69576;51.902;-8.462;2024-02-26T10:12:55;11.50;65.20
80274;DHT22;69576;51.902;-8.462;2024-02-26T10:15:23;11.60;64.80
80274;DHT22;69576;51.902;-8.462;2024-02-26T10:17:49;11.70;64.90
80274;DHT22;69576;51.902;-8.462;2024-02-26T10:20:18;11.70;64.60
80274;DHT22;69576;51.902;-8.462;2024-02-26T10:22:49;11.70;64.00
80274;DHT22;69576;51.902;-8.462;2024-02-26T10:25:20;11.90;63.60
80274;DHT22;69576;51.902;-8.462;2024-02-26T10:27:49;11.90;63.40
80274;DHT22;69576;51.902;-8.462;2024-02-26T10:30:24;12.00;63.80
80274;DHT22;69576;51.902;-8.462;2024-02-26T10:32:51;12.10;64.20
80274;DHT22;69576;51.902;-8.462;2024-02-26T10:35:18;12.30;64.20
80274;DHT22;69576;51.902;-8.462;2024-02-26T10:37:46;12.40;64.40
80274;DHT22;69576;51.902;-8.462;2024-02-26T10:40:13;12.50;64.50
80274;DHT22;69576;51.902;-8.462;2024-02-26T10:42:39;12.60;64.50
80274;DHT22;69576;51.902;-8.462;2024-02-26T10:45:06;12.70;64.50
80274;DHT22;69576;51.902;-8.462;2024-02-26T10:47:33;12.90;64.40
80274;DHT22;69576;51.902;-8.462;2024-02-26T10:50:03;13.00;64.20
80274;DHT22;69576;51.902;-8.462;2024-02-26T10:52:36;13.10;63.40
80274;DHT22;69576;51.902;-8.462;2024-02-26T10:55:03;13.10;63.20
80274;DHT22;69576;51.902;-8.462;2024-02-26T10:57:38;13.10;62.40
80274;DHT22;69576;51.902;-8.462;2024-02-26T11:00:05;13.10;61.90
80274;DHT22;69576;51.902;-8.462;2024-02-26T11:02:33;13.10;62.80
80274;DHT22;69576;51.902;-8.462;2024-02-26T11:05:03;13.20;63.10
80274;DHT22;69576;51.902;-8.462;2024-02-26T11:07:35;13.30;62.80
80274;DHT22;69576;51.902;-8.462;2024-02-26T11:10:05;13.50;62.60
80274;DHT22;69576;51.902;-8.462;2024-02-26T11:12:36;13.50;62.60
80274;DHT22;69576;51.902;-8.462;2024-02-26T11:15:03;13.60;62.50
80274;DHT22;69576;51.902;-8.462;2024-02-26T11:17:29;13.70;62.30
80274;DHT22;69576;51.902;-8.462;2024-02-26T11:19:59;13.90;62.30
80274;DHT22;69576;51.902;-8.462;2024-02-26T11:22:28;13.90;61.90
80274;DHT22;69576;51.902;-8.462;2024-02-26T11:24:55;14.00;62.20
80274;DHT22;69576;51.902;-8.462;2024-02-26T11:27:34;14.10;62.20
80274;DHT22;69576;51.902;-8.462;2024-02-26T11:30:03;14.10;62.10
80274;DHT22;69576;51.902;-8.462;2024-02-26T11:32:31;14.20;62.10
80274;DHT22;69576;51.902;-8.462;2024-02-26T11:35:00;14.30;61.30
80274;DHT22;69576;51.902;-8.462;2024-02-26T11:37:26;14.30;61.80
80274;DHT22;69576;51.902;-8.462;2024-02-26T11:39:53;14.40;61.80
80274;DHT22;69576;51.902;-8.462;2024-02-26T11:42:25;14.40;61.70
80274;DHT22;69576;51.902;-8.462;2024-02-26T11:44:54;14.40;61.80
80274;DHT22;69576;51.902;-8.462;2024-02-26T11:47:26;14.50;61.20
80274;DHT22;69576;51.902;-8.462;2024-02-26T11:49:55;14.60;61.00
80274;DHT22;69576;51.902;-8.462;2024-02-26T11:52:21;14.60;61.60
80274;DHT22;69576;51.902;-8.462;2024-02-26T11:54:51;14.70;61.30
80274;DHT22;69576;51.902;-8.462;2024-02-26T11:57:41;14.80;61.30
80274;DHT22;69576;51.902;-8.462;2024-02-26T12:02:49;14.80;61.20
80274;DHT22;69576;51.902;-8.462;2024-02-26T12:05:20;14.90;61.10
80274;DHT22;69576;51.902;-8.462;2024-02-26T12:07:50;15.00;61.10
80274;DHT22;69576;51.902;-8.462;2024-02-26T12:10:23;15.00;61.20
80274;DHT22;69576;51.902;-8.462;2024-02-26T12:13:03;15.00;60.50
80274;DHT22;69576;51.902;-8.462;2024-02-26T12:15:33;15.10;60.40
80274;DHT22;69576;51.902;-8.462;2024-02-26T12:18:05;15.20;60.80
80274;DHT22;69576;51.902;-8.462;2024-02-26T12:20:36;15.20;60.50
80274;DHT22;69576;51.902;-8.462;2024-02-26T12:23:05;15.30;60.70
80274;DHT22;69576;51.902;-8.462;2024-02-26T12:25:36;15.30;60.70
80274;DHT22;69576;51.902;-8.462;2024-02-26T12:28:01;15.40;60.50
80274;DHT22;69576;51.902;-8.462;2024-02-26T12:30:33;15.40;60.30
80274;DHT22;69576;51.902;-8.462;2024-02-26T12:33:03;15.50;60.50
80274;DHT22;69576;51.902;-8.462;2024-02-26T12:35:29;15.50;60.40
80274;DHT22;69576;51.902;-8.462;2024-02-26T12:37:58;15.60;60.40
80274;DHT22;69576;51.902;-8.462;2024-02-26T12:40:24;15.60;60.10
80274;DHT22;69576;51.902;-8.462;2024-02-26T12:42:50;15.60;60.00
80274;DHT22;69576;51.902;-8.462;2024-02-26T12:45:18;15.60;59.60
80274;DHT22;69576;51.902;-8.462;2024-02-26T12:47:45;15.70;59.50
80274;DHT22;69576;51.902;-8.462;2024-02-26T12:50:17;15.80;59.80
80274;DHT22;69576;51.902;-8.462;2024-02-26T12:52:46;15.80;59.60
80274;DHT22;69576;51.902;-8.462;2024-02-26T12:55:16;15.80;59.90
80274;DHT22;69576;51.902;-8.462;2024-02-26T12:57:45;15.80;60.10
80274;DHT22;69576;51.902;-8.462;2024-02-26T13:00:16;16.00;59.90
80274;DHT22;69576;51.902;-8.462;2024-02-26T13:02:51;16.00;59.80
80274;DHT22;69576;51.902;-8.462;2024-02-26T13:05:20;16.00;59.90
80274;DHT22;69576;51.902;-8.462;2024-02-26T13:07:46;16.10;59.80
80274;DHT22;69576;51.902;-8.462;2024-02-26T13:10:13;16.10;59.80
80274;DHT22;69576;51.902;-8.462;2024-02-26T13:12:44;16.10;59.70
80274;DHT22;69576;51.902;-8.462;2024-02-26T13:15:15;16.20;59.90
80274;DHT22;69576;51.902;-8.462;2024-02-26T13:17:41;16.20;60.00
80274;DHT22;69576;51.902;-8.462;2024-02-26T13:20:09;16.20;59.90
80274;DHT22;69576;51.902;-8.462;2024-02-26T13:22:36;16.30;59.50
80274;DHT22;69576;51.902;-8.462;2024-02-26T13:25:05;16.30;59.80
80274;DHT22;69576;51.902;-8.462;2024-02-26T13:27:33;16.40;59.90
80274;DHT22;69576;51.902;-8.462;2024-02-26T13:30:12;16.40;59.90
80274;DHT22;69576;51.902;-8.462;2024-02-26T13:32:39;16.30;59.80
80274;DHT22;69576;51.902;-8.462;2024-02-26T13:35:10;16.30;59.90
80274;DHT22;69576;51.902;-8.462;2024-02-26T13:37:36;16.20;59.80
80274;DHT22;69576;51.902;-8.462;2024-02-26T13:40:10;16.20;59.90
80274;DHT22;69576;51.902;-8.462;2024-02-26T13:42:37;16.20;59.90
80274;DHT22;69576;51.902;-8.462;2024-02-26T13:45:04;16.20;60.00
80274;DHT22;69576;51.902;-8.462;2024-02-26T13:47:36;16.20;60.00
80274;DHT22;69576;51.902;-8.462;2024-02-26T13:50:02;16.20;60.10
80274;DHT22;69576;51.902;-8.462;2024-02-26T13:52:28;16.10;60.10
80274;DHT22;69576;51.902;-8.462;2024-02-26T13:54:58;16.10;59.90
80274;DHT22;69576;51.902;-8.462;2024-02-26T13:57:25;16.10;60.10
80274;DHT22;69576;51.902;-8.462;2024-02-26T13:59:53;16.10;59.90
80274;DHT22;69576;51.902;-8.462;2024-02-26T14:02:19;16.10;60.10
80274;DHT22;69576;51.902;-8.462;2024-02-26T14:04:48;16.10;60.30
80274;DHT22;69576;51.902;-8.462;2024-02-26T14:07:16;16.10;60.10
80274;DHT22;69576;51.902;-8.462;2024-02-26T14:09:44;16.00;60.10
80274;DHT22;69576;51.902;-8.462;2024-02-26T14:12:13;16.10;60.10
80274;DHT22;69576;51.902;-8.462;2024-02-26T14:14:41;16.10;60.10
80274;DHT22;69576;51.902;-8.462;2024-02-26T14:17:07;16.00;59.90
80274;DHT22;69576;51.902;-8.462;2024-02-26T14:19:33;16.00;60.00
80274;DHT22;69576;51.902;-8.462;2024-02-26T14:21:59;16.00;60.20
80274;DHT22;69576;51.902;-8.462;2024-02-26T14:24:30;15.90;60.20
80274;DHT22;69576;51.902;-8.462;2024-02-26T14:26:58;15.80;60.30
80274;DHT22;69576;51.902;-8.462;2024-02-26T14:29:24;15.80;60.40
80274;DHT22;69576;51.902;-8.462;2024-02-26T14:31:50;15.80;60.40
80274;DHT22;69576;51.902;-8.462;2024-02-26T14:34:18;15.80;60.40
80274;DHT22;69576;51.902;-8.462;2024-02-26T14:36:46;15.80;60.40
80274;DHT22;69576;51.902;-8.462;2024-02-26T14:39:12;15.70;60.40
80274;DHT22;69576;51.902;-8.462;2024-02-26T14:41:39;15.60;60.00
80274;DHT22;69576;51.902;-8.462;2024-02-26T14:44:04;15.60;60.10
80274;DHT22;69576;51.902;-8.462;2024-02-26T14:46:32;15.50;59.90
80274;DHT22;69576;51.902;-8.462;2024-02-26T14:48:58;15.40;59.70
80274;DHT22;69576;51.902;-8.462;2024-02-26T14:51:26;15.40;59.10
80274;DHT22;69576;51.902;-8.462;2024-02-26T14:53:56;15.20;57.60
80274;DHT22;69576;51.902;-8.462;2024-02-26T14:56:29;15.00;56.90
80274;DHT22;69576;51.902;-8.462;2024-02-26T14:58:57;15.00;57.40
80274;DHT22;69576;51.902;-8.462;2024-02-26T15:01:25;14.90;58.10
80274;DHT22;69576;51.902;-8.462;2024-02-26T15:03:51;15.00;58.40
80274;DHT22;69576;51.902;-8.462;2024-02-26T15:06:16;15.00;58.40
80274;DHT22;69576;51.902;-8.462;2024-02-26T15:08:44;15.00;58.60
80274;DHT22;69576;51.902;-8.462;2024-02-26T15:11:10;15.00;58.80
80274;DHT22;69576;51.902;-8.462;2024-02-26T15:13:36;14.90;58.90
80274;DHT22;69576;51.902;-8.462;2024-02-26T15:16:02;14.90;58.80
80274;DHT22;69576;51.902;-8.462;2024-02-26T15:18:29;14.90;58.90
80274;DHT22;69576;51.902;-8.462;2024-02-26T15:20:55;14.90;59.00
80274;DHT22;69576;51.902;-8.462;2024-02-26T15:23:20;14.90;58.90
80274;DHT22;69576;51.902;-8.462;2024-02-26T15:25:46;14.90;59.00
80274;DHT22;69576;51.902;-8.462;2024-02-26T15:28:14;14.90;59.00